Vinton, Louisiana
Current Conditions -  °F | °C
As of 6:35 AM on Monday 22 Dec 2014 (Local Time) from KUXL Reporting Station
Moderate Fog Moderate Fog  
Wind Chill: 56°   Ceiling: 200
Heat Index: 56°   Visibility: 0.5mi
Dew Point: 56°   Wind: 5mph
Humidity: 100%   Direction: 120°ESE
Pressure: 29.8"   Gusts: NA
Location:  30.19°N, 93.58°W
Report Text: KUXL 221235Z AUTO 12004KT 1/2SM FG OVC002 13/13 A2980 RMK AO2 T01310131
Loading
Personal Weather Stations






























Interactive Weather Map New forecast layout! Learn more

10-Day Weather Forecast

Advertisements
Track Severe Weather on mobile